sensor_id;sensor_type;location;lat;lon;timestamp;pressure;altitude;pressure_sealevel;temperature;humidity
41712;BME280;27399;51.516;13.670;2022-08-18T00:02:00;99922.66;;;24.29;68.11
41712;BME280;27399;51.516;13.670;2022-08-18T00:04:26;99924.19;;;24.21;68.25
41712;BME280;27399;51.516;13.670;2022-08-18T00:06:52;99925.06;;;24.21;68.22
41712;BME280;27399;51.516;13.670;2022-08-18T00:09:18;99922.66;;;24.29;67.79
41712;BME280;27399;51.516;13.670;2022-08-18T00:11:44;99915.25;;;24.19;68.11
41712;BME280;27399;51.516;13.670;2022-08-18T00:14:11;99917.13;;;24.18;68.19
41712;BME280;27399;51.516;13.670;2022-08-18T00:16:37;99918.22;;;24.16;68.11
41712;BME280;27399;51.516;13.670;2022-08-18T00:19:02;99918.75;;;24.21;67.88
41712;BME280;27399;51.516;13.670;2022-08-18T00:21:28;99918.31;;;24.14;68.40
41712;BME280;27399;51.516;13.670;2022-08-18T00:23:53;99910.06;;;24.16;68.03
41712;BME280;27399;51.516;13.670;2022-08-18T00:26:19;99911.25;;;24.11;68.44
41712;BME280;27399;51.516;13.670;2022-08-18T00:28:44;99908.75;;;24.08;68.49
41712;BME280;27399;51.516;13.670;2022-08-18T00:31:10;99921.19;;;24.00;68.55
41712;BME280;27399;51.516;13.670;2022-08-18T00:33:35;99916.72;;;23.98;69.03
41712;BME280;27399;51.516;13.670;2022-08-18T00:36:01;99917.16;;;24.05;69.14
41712;BME280;27399;51.516;13.670;2022-08-18T00:38:27;99921.63;;;24.06;69.85
41712;BME280;27399;51.516;13.670;2022-08-18T00:40:54;99915.94;;;24.09;70.52
41712;BME280;27399;51.516;13.670;2022-08-18T00:43:28;99921.94;;;24.14;70.31
41712;BME280;27399;51.516;13.670;2022-08-18T00:45:56;99917.25;;;24.04;71.61
41712;BME280;27399;51.516;13.670;2022-08-18T00:48:22;99920.75;;;24.06;71.75
41712;BME280;27399;51.516;13.670;2022-08-18T00:50:52;99925.75;;;24.12;71.71
41712;BME280;27399;51.516;13.670;2022-08-18T00:53:28;99925.34;;;24.05;71.75
41712;BME280;27399;51.516;13.670;2022-08-18T00:55:56;99916.59;;;23.87;72.58
41712;BME280;27399;51.516;13.670;2022-08-18T00:58:34;99907.47;;;23.88;72.37
41712;BME280;27399;51.516;13.670;2022-08-18T01:01:04;99907.38;;;23.51;73.17
41712;BME280;27399;51.516;13.670;2022-08-18T01:03:30;99907.69;;;23.46;73.05
41712;BME280;27399;51.516;13.670;2022-08-18T01:06:02;99908.78;;;23.82;71.80
41712;BME280;27399;51.516;13.670;2022-08-18T01:08:27;99908.78;;;23.70;72.17
41712;BME280;27399;51.516;13.670;2022-08-18T01:10:53;99912.47;;;23.81;71.54
41712;BME280;27399;51.516;13.670;2022-08-18T01:13:19;99902.16;;;23.48;72.61
41712;BME280;27399;51.516;13.670;2022-08-18T01:15:45;99908.13;;;23.66;70.98
41712;BME280;27399;51.516;13.670;2022-08-18T01:18:12;99907.50;;;23.36;71.59
41712;BME280;27399;51.516;13.670;2022-08-18T01:20:59;99918.03;;;23.54;71.47
41712;BME280;27399;51.516;13.670;2022-08-18T01:23:47;99918.59;;;23.59;71.12
41712;BME280;27399;51.516;13.670;2022-08-18T01:26:13;99919.34;;;23.61;71.53
41712;BME280;27399;51.516;13.670;2022-08-18T01:28:41;99916.53;;;23.63;71.48
41712;BME280;27399;51.516;13.670;2022-08-18T01:31:08;99916.94;;;23.44;71.91
41712;BME280;27399;51.516;13.670;2022-08-18T01:33:37;99923.94;;;23.61;71.88
41712;BME280;27399;51.516;13.670;2022-08-18T01:36:13;99927.50;;;23.61;71.74
41712;BME280;27399;51.516;13.670;2022-08-18T01:38:41;99922.06;;;23.35;72.49
41712;BME280;27399;51.516;13.670;2022-08-18T01:41:07;99917.88;;;23.17;73.49
41712;BME280;27399;51.516;13.670;2022-08-18T01:43:33;99923.56;;;23.27;72.93
41712;BME280;27399;51.516;13.670;2022-08-18T01:46:00;99930.75;;;23.41;72.50
41712;BME280;27399;51.516;13.670;2022-08-18T01:48:28;99928.03;;;22.87;73.73
41712;BME280;27399;51.516;13.670;2022-08-18T01:50:57;99919.72;;;23.03;73.39
41712;BME280;27399;51.516;13.670;2022-08-18T01:53:22;99916.34;;;23.13;73.24
41712;BME280;27399;51.516;13.670;2022-08-18T01:55:48;99920.16;;;23.10;73.94
41712;BME280;27399;51.516;13.670;2022-08-18T01:58:13;99918.66;;;23.19;73.22
41712;BME280;27399;51.516;13.670;2022-08-18T02:00:39;99923.03;;;23.21;73.03
41712;BME280;27399;51.516;13.670;2022-08-18T02:03:06;99930.09;;;22.84;74.13
41712;BME280;27399;51.516;13.670;2022-08-18T02:05:45;99923.53;;;22.73;74.74
41712;BME280;27399;51.516;13.670;2022-08-18T02:08:12;99921.19;;;22.54;75.89
41712;BME280;27399;51.516;13.670;2022-08-18T02:10:39;99920.50;;;22.51;75.71
41712;BME280;27399;51.516;13.670;2022-08-18T02:13:06;99920.16;;;22.42;75.82
41712;BME280;27399;51.516;13.670;2022-08-18T02:15:31;99921.47;;;22.35;75.97
41712;BME280;27399;51.516;13.670;2022-08-18T02:17:57;99914.94;;;22.67;74.91
41712;BME280;27399;51.516;13.670;2022-08-18T02:20:23;99913.72;;;22.43;75.62
41712;BME280;27399;51.516;13.670;2022-08-18T02:22:48;99918.31;;;22.43;75.50
41712;BME280;27399;51.516;13.670;2022-08-18T02:25:15;99905.16;;;22.64;74.63
41712;BME280;27399;51.516;13.670;2022-08-18T02:27:41;99909.25;;;22.70;74.65
41712;BME280;27399;51.516;13.670;2022-08-18T02:30:08;99907.94;;;22.63;74.68
41712;BME280;27399;51.516;13.670;2022-08-18T02:32:34;99904.44;;;22.60;74.67
41712;BME280;27399;51.516;13.670;2022-08-18T02:34:59;99912.13;;;22.81;73.96
41712;BME280;27399;51.516;13.670;2022-08-18T02:37:25;99912.25;;;22.80;74.49
41712;BME280;27399;51.516;13.670;2022-08-18T02:39:50;99907.38;;;22.85;73.87
41712;BME280;27399;51.516;13.670;2022-08-18T02:42:16;99915.16;;;22.77;74.04
41712;BME280;27399;51.516;13.670;2022-08-18T02:44:42;99919.78;;;22.89;73.81
41712;BME280;27399;51.516;13.670;2022-08-18T02:47:08;99914.13;;;22.92;73.67
41712;BME280;27399;51.516;13.670;2022-08-18T02:49:33;99913.03;;;22.95;73.24
41712;BME280;27399;51.516;13.670;2022-08-18T02:52:00;99911.09;;;22.97;73.10
41712;BME280;27399;51.516;13.670;2022-08-18T02:54:26;99914.94;;;22.67;73.61
41712;BME280;27399;51.516;13.670;2022-08-18T02:56:52;99917.06;;;22.89;73.27
41712;BME280;27399;51.516;13.670;2022-08-18T02:59:18;99908.81;;;22.90;73.25
41712;BME280;27399;51.516;13.670;2022-08-18T03:01:45;99916.28;;;22.87;73.11
41712;BME280;27399;51.516;13.670;2022-08-18T03:04:12;99910.25;;;22.69;73.93
41712;BME280;27399;51.516;13.670;2022-08-18T03:06:38;99906.47;;;22.71;73.78
41712;BME280;27399;51.516;13.670;2022-08-18T03:09:05;99896.50;;;22.85;73.37
41712;BME280;27399;51.516;13.670;2022-08-18T03:11:31;99888.34;;;22.85;73.11
41712;BME280;27399;51.516;13.670;2022-08-18T03:13:56;99890.63;;;22.78;73.27
41712;BME280;27399;51.516;13.670;2022-08-18T03:16:22;99892.03;;;22.84;73.16
41712;BME280;27399;51.516;13.670;2022-08-18T03:18:49;99886.22;;;22.75;73.39
41712;BME280;27399;51.516;13.670;2022-08-18T03:21:16;99880.78;;;22.75;73.30
41712;BME280;27399;51.516;13.670;2022-08-18T03:23:43;99881.34;;;22.40;74.14
41712;BME280;27399;51.516;13.670;2022-08-18T03:26:10;99878.41;;;22.71;73.40
41712;BME280;27399;51.516;13.670;2022-08-18T03:28:40;99880.56;;;22.66;73.67
41712;BME280;27399;51.516;13.670;2022-08-18T03:31:06;99877.91;;;22.51;73.83
41712;BME280;27399;51.516;13.670;2022-08-18T03:33:32;99874.88;;;22.56;73.85
41712;BME280;27399;51.516;13.670;2022-08-18T03:36:08;99876.22;;;22.63;73.35
41712;BME280;27399;51.516;13.670;2022-08-18T03:38:34;99878.19;;;22.74;72.79
41712;BME280;27399;51.516;13.670;2022-08-18T03:40:59;99887.53;;;22.70;72.90
41712;BME280;27399;51.516;13.670;2022-08-18T03:43:28;99882.78;;;22.73;72.70
41712;BME280;27399;51.516;13.670;2022-08-18T03:45:59;99883.94;;;22.69;73.26
41712;BME280;27399;51.516;13.670;2022-08-18T03:48:24;99887.97;;;22.77;73.17
41712;BME280;27399;51.516;13.670;2022-08-18T03:50:50;99884.59;;;22.73;73.29
41712;BME280;27399;51.516;13.670;2022-08-18T03:53:16;99890.88;;;22.60;73.79
41712;BME280;27399;51.516;13.670;2022-08-18T03:55:42;99895.97;;;22.38;74.05
41712;BME280;27399;51.516;13.670;2022-08-18T03:58:08;99897.16;;;22.34;74.22
41712;BME280;27399;51.516;13.670;2022-08-18T04:00:38;99893.53;;;22.48;74.31
41712;BME280;27399;51.516;13.670;2022-08-18T04:03:04;99891.41;;;22.38;74.50
41712;BME280;27399;51.516;13.670;2022-08-18T04:05:30;99896.84;;;22.38;74.82
41712;BME280;27399;51.516;13.670;2022-08-18T04:07:56;99892.88;;;22.44;74.56
41712;BME280;27399;51.516;13.670;2022-08-18T04:10:22;99900.53;;;22.52;74.62
41712;BME280;27399;51.516;13.670;2022-08-18T04:12:48;99898.91;;;22.35;75.49
41712;BME280;27399;51.516;13.670;2022-08-18T04:15:14;99903.84;;;22.42;75.72
41712;BME280;27399;51.516;13.670;2022-08-18T04:17:39;99913.09;;;22.25;75.70
41712;BME280;27399;51.516;13.670;2022-08-18T04:20:05;99908.72;;;22.23;75.61
41712;BME280;27399;51.516;13.670;2022-08-18T04:22:30;99910.63;;;22.35;75.17
41712;BME280;27399;51.516;13.670;2022-08-18T04:24:59;99904.84;;;22.41;74.50
41712;BME280;27399;51.516;13.670;2022-08-18T04:27:25;99899.75;;;22.35;75.07
41712;BME280;27399;51.516;13.670;2022-08-18T04:29:51;99895.81;;;22.26;75.27
41712;BME280;27399;51.516;13.670;2022-08-18T04:32:17;99902.38;;;22.37;75.14
41712;BME280;27399;51.516;13.670;2022-08-18T04:34:43;99904.84;;;22.12;75.87
41712;BME280;27399;51.516;13.670;2022-08-18T04:37:09;99896.75;;;21.98;76.09
41712;BME280;27399;51.516;13.670;2022-08-18T04:39:35;99898.38;;;22.15;76.33
41712;BME280;27399;51.516;13.670;2022-08-18T04:42:01;99905.13;;;22.22;76.16
41712;BME280;27399;51.516;13.670;2022-08-18T04:44:28;99901.41;;;22.38;75.80
41712;BME280;27399;51.516;13.670;2022-08-18T04:46:53;99916.81;;;22.37;75.49
41712;BME280;27399;51.516;13.670;2022-08-18T04:49:20;99914.13;;;22.37;75.73
41712;BME280;27399;51.516;13.670;2022-08-18T04:51:48;99920.03;;;22.44;75.77
41712;BME280;27399;51.516;13.670;2022-08-18T04:54:33;99918.56;;;22.53;75.25
41712;BME280;27399;51.516;13.670;2022-08-18T04:57:05;99920.44;;;22.38;76.47
41712;BME280;27399;51.516;13.670;2022-08-18T04:59:32;99919.16;;;22.43;76.45
41712;BME280;27399;51.516;13.670;2022-08-18T05:01:57;99915.94;;;22.51;76.15
41712;BME280;27399;51.516;13.670;2022-08-18T05:04:25;99929.03;;;22.59;76.03
41712;BME280;27399;51.516;13.670;2022-08-18T05:06:52;99926.13;;;22.33;77.11
41712;BME280;27399;51.516;13.670;2022-08-18T05:09:18;99928.31;;;22.42;76.80
41712;BME280;27399;51.516;13.670;2022-08-18T05:11:43;99932.41;;;22.21;77.76
41712;BME280;27399;51.516;13.670;2022-08-18T05:14:09;99933.38;;;22.62;76.61
41712;BME280;27399;51.516;13.670;2022-08-18T05:16:35;99931.91;;;22.70;76.36
41712;BME280;27399;51.516;13.670;2022-08-18T05:19:02;99935.06;;;22.77;76.59
41712;BME280;27399;51.516;13.670;2022-08-18T05:21:28;99927.09;;;22.61;77.02
41712;BME280;27399;51.516;13.670;2022-08-18T05:23:54;99926.19;;;22.88;76.20
41712;BME280;27399;51.516;13.670;2022-08-18T05:26:19;99930.72;;;22.74;76.54
41712;BME280;27399;51.516;13.670;2022-08-18T05:28:45;99933.03;;;22.94;76.23
41712;BME280;27399;51.516;13.670;2022-08-18T05:31:12;99918.94;;;23.01;76.22
41712;BME280;27399;51.516;13.670;2022-08-18T05:33:38;99922.22;;;23.06;76.14
41712;BME280;27399;51.516;13.670;2022-08-18T05:36:17;99937.63;;;22.93;76.72
41712;BME280;27399;51.516;13.670;2022-08-18T05:41:42;99926.19;;;23.28;75.54
41712;BME280;27399;51.516;13.670;2022-08-18T05:44:13;99934.56;;;23.25;75.54
41712;BME280;27399;51.516;13.670;2022-08-18T05:46:42;99935.75;;;23.21;76.51
41712;BME280;27399;51.516;13.670;2022-08-18T05:49:09;99948.97;;;23.13;76.33
41712;BME280;27399;51.516;13.670;2022-08-18T05:51:40;99936.53;;;23.23;76.02
41712;BME280;27399;51.516;13.670;2022-08-18T05:54:06;99941.00;;;23.50;75.55
41712;BME280;27399;51.516;13.670;2022-08-18T05:56:51;99942.44;;;23.68;71.93
41712;BME280;27399;51.516;13.670;2022-08-18T05:59:20;99948.63;;;23.58;72.57
41712;BME280;27399;51.516;13.670;2022-08-18T06:01:50;99945.72;;;24.00;71.00
41712;BME280;27399;51.516;13.670;2022-08-18T06:04:21;99948.81;;;23.93;71.68
41712;BME280;27399;51.516;13.670;2022-08-18T06:06:48;99952.09;;;24.11;70.81
41712;BME280;27399;51.516;13.670;2022-08-18T06:09:23;99949.69;;;24.20;69.26
41712;BME280;27399;51.516;13.670;2022-08-18T06:11:50;99954.44;;;24.29;68.41
41712;BME280;27399;51.516;13.670;2022-08-18T06:14:18;99960.47;;;24.58;67.93
41712;BME280;27399;51.516;13.670;2022-08-18T06:16:49;99954.16;;;24.34;68.51
41712;BME280;27399;51.516;13.670;2022-08-18T06:19:21;99947.13;;;24.42;68.53
41712;BME280;27399;51.516;13.670;2022-08-18T06:22:11;99943.13;;;24.35;69.74
41712;BME280;27399;51.516;13.670;2022-08-18T06:25:01;99945.56;;;24.51;69.84
41712;BME280;27399;51.516;13.670;2022-08-18T06:30:10;99956.22;;;24.91;66.83
41712;BME280;27399;51.516;13.670;2022-08-18T06:32:51;99958.19;;;24.89;67.59
41712;BME280;27399;51.516;13.670;2022-08-18T06:35:31;99952.34;;;25.07;66.58
41712;BME280;27399;51.516;13.670;2022-08-18T06:38:02;99944.41;;;24.80;67.20
41712;BME280;27399;51.516;13.670;2022-08-18T06:40:48;99961.25;;;25.09;67.67
41712;BME280;27399;51.516;13.670;2022-08-18T06:43:14;99957.38;;;25.36;66.30
41712;BME280;27399;51.516;13.670;2022-08-18T06:45:41;99957.69;;;25.44;65.35
41712;BME280;27399;51.516;13.670;2022-08-18T06:48:31;99960.53;;;25.43;66.69
41712;BME280;27399;51.516;13.670;2022-08-18T06:51:00;99954.22;;;25.53;64.80
41712;BME280;27399;51.516;13.670;2022-08-18T06:53:49;99961.28;;;25.56;64.99
41712;BME280;27399;51.516;13.670;2022-08-18T06:56:24;99956.97;;;25.76;64.96
41712;BME280;27399;51.516;13.670;2022-08-18T06:58:49;99960.22;;;25.81;65.23
41712;BME280;27399;51.516;13.670;2022-08-18T07:01:19;99960.09;;;25.94;65.99
41712;BME280;27399;51.516;13.670;2022-08-18T07:03:52;99959.34;;;26.04;63.62
41712;BME280;27399;51.516;13.670;2022-08-18T07:08:45;99969.19;;;26.29;64.51
41712;BME280;27399;51.516;13.670;2022-08-18T07:13:51;99966.66;;;26.49;62.86
41712;BME280;27399;51.516;13.670;2022-08-18T07:18:42;99971.59;;;26.78;62.42
41712;BME280;27399;51.516;13.670;2022-08-18T07:21:08;99958.78;;;26.89;61.74
41712;BME280;27399;51.516;13.670;2022-08-18T07:23:35;99958.88;;;26.88;63.04
41712;BME280;27399;51.516;13.670;2022-08-18T07:26:10;99956.59;;;27.04;63.16
41712;BME280;27399;51.516;13.670;2022-08-18T07:28:47;99962.16;;;27.35;60.84
41712;BME280;27399;51.516;13.670;2022-08-18T07:34:11;99961.66;;;27.63;62.15
41712;BME280;27399;51.516;13.670;2022-08-18T07:42:30;99955.72;;;28.10;59.10
41712;BME280;27399;51.516;13.670;2022-08-18T07:45:08;99959.25;;;28.32;60.04
41712;BME280;27399;51.516;13.670;2022-08-18T07:47:50;99955.63;;;28.31;58.30
41712;BME280;27399;51.516;13.670;2022-08-18T07:50:17;99953.19;;;28.28;59.22
41712;BME280;27399;51.516;13.670;2022-08-18T07:55:10;99959.63;;;28.58;58.79
41712;BME280;27399;51.516;13.670;2022-08-18T07:57:42;99961.34;;;28.69;59.08
41712;BME280;27399;51.516;13.670;2022-08-18T08:05:03;99956.09;;;28.97;59.19
41712;BME280;27399;51.516;13.670;2022-08-18T08:07:36;99958.13;;;29.04;58.93
41712;BME280;27399;51.516;13.670;2022-08-18T08:17:57;99958.41;;;29.01;57.26
41712;BME280;27399;51.516;13.670;2022-08-18T08:33:43;99948.53;;;29.58;55.49
41712;BME280;27399;51.516;13.670;2022-08-18T08:36:14;99950.41;;;29.67;55.08
41712;BME280;27399;51.516;13.670;2022-08-18T08:38:45;99944.50;;;29.62;55.01
41712;BME280;27399;51.516;13.670;2022-08-18T08:41:14;99948.91;;;29.82;54.34
41712;BME280;27399;51.516;13.670;2022-08-18T08:43:52;99944.28;;;29.83;54.49
41712;BME280;27399;51.516;13.670;2022-08-18T08:46:20;99952.44;;;30.12;54.71
41712;BME280;27399;51.516;13.670;2022-08-18T08:49:07;99945.22;;;30.11;54.34
41712;BME280;27399;51.516;13.670;2022-08-18T08:51:37;99944.13;;;30.22;53.99
41712;BME280;27399;51.516;13.670;2022-08-18T08:56:44;99949.59;;;30.32;52.89
41712;BME280;27399;51.516;13.670;2022-08-18T08:59:13;99946.34;;;30.47;53.20
41712;BME280;27399;51.516;13.670;2022-08-18T09:05:04;99930.69;;;30.47;52.88
41712;BME280;27399;51.516;13.670;2022-08-18T09:10:06;99923.34;;;30.66;53.66
41712;BME280;27399;51.516;13.670;2022-08-18T09:12:26;99921.63;;;30.65;54.36
41712;BME280;27399;51.516;13.670;2022-08-18T09:19:57;99912.81;;;30.79;52.60
41712;BME280;27399;51.516;13.670;2022-08-18T09:24:59;99914.22;;;31.01;53.05
41712;BME280;27399;51.516;13.670;2022-08-18T09:27:30;99916.84;;;31.03;51.75
41712;BME280;27399;51.516;13.670;2022-08-18T09:29:58;99910.31;;;31.48;51.27
41712;BME280;27399;51.516;13.670;2022-08-18T09:34:59;99901.09;;;31.84;50.59
41712;BME280;27399;51.516;13.670;2022-08-18T09:37:29;99902.66;;;31.87;50.41
41712;BME280;27399;51.516;13.670;2022-08-18T09:40:10;99903.31;;;31.80;50.38
41712;BME280;27399;51.516;13.670;2022-08-18T09:43:15;99896.19;;;31.70;50.32
41712;BME280;27399;51.516;13.670;2022-08-18T09:56:06;99894.47;;;32.46;49.23
41712;BME280;27399;51.516;13.670;2022-08-18T10:06:38;99871.59;;;33.12;49.18
41712;BME280;27399;51.516;13.670;2022-08-18T10:09:06;99864.19;;;33.20;49.10
41712;BME280;27399;51.516;13.670;2022-08-18T10:11:46;99863.47;;;33.02;48.12
41712;BME280;27399;51.516;13.670;2022-08-18T10:15:17;99868.97;;;32.77;48.03
41712;BME280;27399;51.516;13.670;2022-08-18T10:24:59;99847.09;;;33.00;46.06
41712;BME280;27399;51.516;13.670;2022-08-18T10:31:09;99848.66;;;33.11;47.24
41712;BME280;27399;51.516;13.670;2022-08-18T10:33:04;99835.16;;;33.25;46.07
41712;BME280;27399;51.516;13.670;2022-08-18T10:38:00;99839.81;;;33.32;46.98
41712;BME280;27399;51.516;13.670;2022-08-18T10:40:26;99836.56;;;33.20;46.81
41712;BME280;27399;51.516;13.670;2022-08-18T10:42:54;99843.59;;;33.31;45.52
41712;BME280;27399;51.516;13.670;2022-08-18T10:45:29;99847.94;;;33.34;46.81
41712;BME280;27399;51.516;13.670;2022-08-18T10:50:45;99848.97;;;33.25;46.42
41712;BME280;27399;51.516;13.670;2022-08-18T10:53:26;99850.69;;;33.17;46.37
41712;BME280;27399;51.516;13.670;2022-08-18T10:56:01;99850.53;;;33.19;46.05
41712;BME280;27399;51.516;13.670;2022-08-18T11:06:21;99849.13;;;33.31;44.18
41712;BME280;27399;51.516;13.670;2022-08-18T11:08:49;99843.09;;;33.28;44.25
41712;BME280;27399;51.516;13.670;2022-08-18T11:11:19;99841.03;;;33.38;44.73
41712;BME280;27399;51.516;13.670;2022-08-18T11:18:57;99828.59;;;33.17;45.83
41712;BME280;27399;51.516;13.670;2022-08-18T11:21:32;99829.81;;;33.23;45.48
41712;BME280;27399;51.516;13.670;2022-08-18T11:24:03;99828.59;;;33.26;45.88
41712;BME280;27399;51.516;13.670;2022-08-18T11:26:29;99835.84;;;33.27;46.92
41712;BME280;27399;51.516;13.670;2022-08-18T11:28:55;99837.56;;;33.28;45.94
41712;BME280;27399;51.516;13.670;2022-08-18T11:31:21;99843.63;;;33.15;46.22
41712;BME280;27399;51.516;13.670;2022-08-18T11:33:46;99839.28;;;33.29;46.69
41712;BME280;27399;51.516;13.670;2022-08-18T11:36:12;99837.59;;;33.11;45.76
41712;BME280;27399;51.516;13.670;2022-08-18T11:45:21;99850.72;;;33.09;46.59
41712;BME280;27399;51.516;13.670;2022-08-18T11:50:26;99854.69;;;32.98;47.19
41712;BME280;27399;51.516;13.670;2022-08-18T11:52:52;99860.72;;;33.02;47.21
41712;BME280;27399;51.516;13.670;2022-08-18T11:55:20;99855.91;;;32.96;47.32
41712;BME280;27399;51.516;13.670;2022-08-18T12:03:06;99864.31;;;32.78;46.85
41712;BME280;27399;51.516;13.670;2022-08-18T12:05:42;99865.91;;;32.80;47.63
41712;BME280;27399;51.516;13.670;2022-08-18T12:11:03;99855.91;;;32.79;49.12
41712;BME280;27399;51.516;13.670;2022-08-18T12:13:29;99855.34;;;32.75;49.89
41712;BME280;27399;51.516;13.670;2022-08-18T12:18:39;99853.94;;;32.47;49.63
41712;BME280;27399;51.516;13.670;2022-08-18T12:21:05;99851.19;;;32.55;48.63
41712;BME280;27399;51.516;13.670;2022-08-18T12:23:31;99856.50;;;32.40;48.62
41712;BME280;27399;51.516;13.670;2022-08-18T12:25:58;99859.13;;;32.50;48.65
41712;BME280;27399;51.516;13.670;2022-08-18T12:28:23;99855.47;;;32.49;48.95
41712;BME280;27399;51.516;13.670;2022-08-18T12:30:50;99862.19;;;32.38;48.74
41712;BME280;27399;51.516;13.670;2022-08-18T12:33:16;99868.03;;;32.27;48.96
41712;BME280;27399;51.516;13.670;2022-08-18T12:35:41;99875.03;;;32.21;49.02
41712;BME280;27399;51.516;13.670;2022-08-18T12:38:08;99868.50;;;32.22;49.46
41712;BME280;27399;51.516;13.670;2022-08-18T12:40:34;99875.38;;;32.18;49.61
41712;BME280;27399;51.516;13.670;2022-08-18T12:43:00;99871.22;;;32.06;49.67
41712;BME280;27399;51.516;13.670;2022-08-18T12:45:26;99878.69;;;32.22;50.15
41712;BME280;27399;51.516;13.670;2022-08-18T12:47:51;99875.63;;;31.90;49.69
41712;BME280;27399;51.516;13.670;2022-08-18T12:50:17;99871.34;;;31.96;49.41
41712;BME280;27399;51.516;13.670;2022-08-18T12:52:42;99871.53;;;32.03;49.34
41712;BME280;27399;51.516;13.670;2022-08-18T12:55:08;99867.59;;;32.13;49.55
41712;BME280;27399;51.516;13.670;2022-08-18T12:57:34;99869.13;;;32.08;50.01
41712;BME280;27399;51.516;13.670;2022-08-18T13:00:00;99877.69;;;31.88;50.00
41712;BME280;27399;51.516;13.670;2022-08-18T13:02:25;99876.34;;;32.01;50.37
41712;BME280;27399;51.516;13.670;2022-08-18T13:04:51;99874.81;;;31.98;50.25
41712;BME280;27399;51.516;13.670;2022-08-18T13:07:16;99880.09;;;31.91;50.06
41712;BME280;27399;51.516;13.670;2022-08-18T13:09:42;99884.69;;;31.74;50.24
41712;BME280;27399;51.516;13.670;2022-08-18T13:12:08;99870.28;;;31.89;50.36
41712;BME280;27399;51.516;13.670;2022-08-18T13:14:33;99871.38;;;31.70;50.75
41712;BME280;27399;51.516;13.670;2022-08-18T13:16:59;99871.44;;;31.78;50.87
41712;BME280;27399;51.516;13.670;2022-08-18T13:19:25;99868.66;;;31.78;51.70
41712;BME280;27399;51.516;13.670;2022-08-18T13:21:50;99863.41;;;31.66;52.25
41712;BME280;27399;51.516;13.670;2022-08-18T13:24:16;99850.47;;;31.59;52.79
41712;BME280;27399;51.516;13.670;2022-08-18T13:26:42;99842.75;;;31.62;52.95
41712;BME280;27399;51.516;13.670;2022-08-18T13:29:08;99838.06;;;31.63;52.52
41712;BME280;27399;51.516;13.670;2022-08-18T13:31:34;99832.16;;;31.49;53.23
41712;BME280;27399;51.516;13.670;2022-08-18T13:34:00;99831.00;;;31.60;53.12
41712;BME280;27399;51.516;13.670;2022-08-18T13:36:27;99833.34;;;31.47;52.80
41712;BME280;27399;51.516;13.670;2022-08-18T13:39:18;99832.72;;;31.53;53.46
41712;BME280;27399;51.516;13.670;2022-08-18T13:41:44;99827.38;;;31.60;52.59
41712;BME280;27399;51.516;13.670;2022-08-18T13:44:10;99834.34;;;31.72;52.60
41712;BME280;27399;51.516;13.670;2022-08-18T13:46:39;99832.81;;;31.70;53.09
41712;BME280;27399;51.516;13.670;2022-08-18T13:49:16;99826.13;;;31.54;53.33
41712;BME280;27399;51.516;13.670;2022-08-18T13:51:42;99830.75;;;31.72;54.24
41712;BME280;27399;51.516;13.670;2022-08-18T13:54:09;99825.06;;;31.73;53.76
41712;BME280;27399;51.516;13.670;2022-08-18T13:56:38;99822.84;;;31.77;54.55
41712;BME280;27399;51.516;13.670;2022-08-18T13:59:03;99824.75;;;31.76;55.38
41712;BME280;27399;51.516;13.670;2022-08-18T14:01:29;99826.47;;;31.77;56.43
41712;BME280;27399;51.516;13.670;2022-08-18T14:03:56;99827.03;;;31.55;57.30
41712;BME280;27399;51.516;13.670;2022-08-18T14:06:21;99825.81;;;31.57;58.15
41712;BME280;27399;51.516;13.670;2022-08-18T14:08:48;99812.06;;;31.65;56.97
41712;BME280;27399;51.516;13.670;2022-08-18T14:11:13;99809.66;;;31.62;57.29
41712;BME280;27399;51.516;13.670;2022-08-18T14:13:39;99805.53;;;31.66;57.17
41712;BME280;27399;51.516;13.670;2022-08-18T14:16:04;99807.41;;;31.58;57.54
41712;BME280;27399;51.516;13.670;2022-08-18T14:18:30;99809.66;;;31.62;57.85
41712;BME280;27399;51.516;13.670;2022-08-18T14:20:55;99829.09;;;31.61;58.07
41712;BME280;27399;51.516;13.670;2022-08-18T14:23:39;99831.81;;;31.52;58.01
41712;BME280;27399;51.516;13.670;2022-08-18T14:26:23;99839.53;;;31.41;58.81
41712;BME280;27399;51.516;13.670;2022-08-18T14:29:07;99842.38;;;31.31;57.99
41712;BME280;27399;51.516;13.670;2022-08-18T14:31:33;99841.53;;;31.30;58.53
41712;BME280;27399;51.516;13.670;2022-08-18T14:33:59;99844.59;;;31.27;58.35
41712;BME280;27399;51.516;13.670;2022-08-18T14:36:24;99842.84;;;31.26;58.33
41712;BME280;27399;51.516;13.670;2022-08-18T14:38:49;99849.88;;;31.47;58.23
41712;BME280;27399;51.516;13.670;2022-08-18T14:41:15;99844.53;;;31.45;58.25
41712;BME280;27399;51.516;13.670;2022-08-18T14:43:40;99838.16;;;31.45;58.44
41712;BME280;27399;51.516;13.670;2022-08-18T14:46:09;99836.59;;;31.42;58.56
41712;BME280;27399;51.516;13.670;2022-08-18T14:48:35;99828.03;;;31.19;58.50
41712;BME280;27399;51.516;13.670;2022-08-18T14:51:01;99823.97;;;31.31;58.17
41712;BME280;27399;51.516;13.670;2022-08-18T14:53:28;99825.31;;;31.09;58.29
41712;BME280;27399;51.516;13.670;2022-08-18T14:55:55;99825.97;;;31.21;58.19
41712;BME280;27399;51.516;13.670;2022-08-18T14:58:22;99823.41;;;31.28;58.13
41712;BME280;27399;51.516;13.670;2022-08-18T15:00:55;99828.56;;;31.22;58.27
41712;BME280;27399;51.516;13.670;2022-08-18T15:03:21;99823.53;;;31.00;59.32
41712;BME280;27399;51.516;13.670;2022-08-18T15:05:47;99831.56;;;30.93;58.99
41712;BME280;27399;51.516;13.670;2022-08-18T15:08:12;99830.44;;;31.22;58.53
41712;BME280;27399;51.516;13.670;2022-08-18T15:10:38;99834.59;;;31.08;59.41
41712;BME280;27399;51.516;13.670;2022-08-18T15:13:03;99826.22;;;31.10;59.17
41712;BME280;27399;51.516;13.670;2022-08-18T15:15:29;99815.97;;;30.75;59.26